Time;durP1;ratioP1;P1;durP2;ratioP2;P2;SDS_P1;SDS_P2;PMS_P1;PMS_P2;Temp;Humidity;BMP_temperature;BMP_pressure;BME280_temperature;BME280_humidity;BME280_pressure;Samples;Min_cycle;Max_cycle;Signal;HPM_P1;HPM_P2
2023/03/27 00:00:41;;;;;;;1.10;0.88;;;1.30;99.90;;;;;;4991781;28;20050;-76
2023/03/27 00:03:10;;;;;;;0.60;0.60;;;1.30;99.90;;;;;;5003589;28;20055;-75
2023/03/27 00:05:38;;;;;;;0.98;0.85;;;1.30;99.90;;;;;;5008357;28;20132;-76
2023/03/27 00:08:08;;;;;;;0.95;0.73;;;1.30;99.90;;;;;;5010800;28;20147;-75
2023/03/27 00:10:37;;;;;;;0.82;0.70;;;1.20;99.90;;;;;;5010919;28;20203;-76
2023/03/27 00:13:05;;;;;;;0.70;0.60;;;1.20;99.90;;;;;;5000230;28;20049;-78
2023/03/27 00:15:35;;;;;;;1.95;0.50;;;1.20;99.90;;;;;;5010107;28;20057;-77
2023/03/27 00:18:03;;;;;;;1.30;0.70;;;1.20;99.90;;;;;;4995872;28;20540;-78
2023/03/27 00:20:36;;;;;;;0.70;0.70;;;1.20;99.90;;;;;;5006123;28;20150;-77
2023/03/27 00:23:05;;;;;;;0.70;0.70;;;1.10;99.90;;;;;;4997668;28;20053;-76
2023/03/27 00:25:34;;;;;;;1.38;0.80;;;1.00;99.90;;;;;;5009144;28;20499;-75
2023/03/27 00:28:02;;;;;;;1.08;0.77;;;1.00;99.90;;;;;;5013628;28;20058;-75
2023/03/27 00:30:32;;;;;;;0.50;0.50;;;1.00;99.90;;;;;;4997841;28;20093;-74
2023/03/27 00:33:00;;;;;;;0.60;0.60;;;1.10;99.90;;;;;;4995562;28;20053;-76
2023/03/27 00:35:30;;;;;;;1.23;0.52;;;1.10;99.90;;;;;;5008438;28;20058;-77
2023/03/27 00:37:57;;;;;;;7.47;0.77;;;1.00;99.90;;;;;;5009643;28;20062;-76
2023/03/27 00:40:26;;;;;;;2.15;0.57;;;1.00;99.90;;;;;;5011989;28;20046;-77
2023/03/27 00:42:58;;;;;;;0.60;0.60;;;1.00;99.90;;;;;;5004005;28;20050;-77
2023/03/27 00:45:29;;;;;;;1.33;0.73;;;1.10;99.90;;;;;;5010020;28;20050;-77
2023/03/27 00:48:01;;;;;;;0.73;0.63;;;1.10;99.90;;;;;;4996928;28;20046;-76
2023/03/27 00:50:35;;;;;;;0.80;0.70;;;1.10;99.90;;;;;;5010762;28;20052;-76
2023/03/27 00:53:09;;;;;;;1.77;0.55;;;1.10;99.90;;;;;;5009374;28;20065;-76
2023/03/27 00:55:41;;;;;;;1.00;0.57;;;1.10;99.90;;;;;;5001664;28;20100;-76
2023/03/27 00:58:17;;;;;;;1.25;0.75;;;1.10;99.90;;;;;;5009275;28;20155;-76
2023/03/27 01:00:45;;;;;;;0.60;0.60;;;1.20;99.90;;;;;;5017280;28;20061;-77
2023/03/27 01:03:13;;;;;;;2.40;0.80;;;1.20;99.90;;;;;;5007925;28;20046;-77
2023/03/27 01:05:41;;;;;;;1.05;0.77;;;1.20;99.90;;;;;;5004921;28;20046;-77
2023/03/27 01:08:10;;;;;;;0.80;0.60;;;1.20;99.90;;;;;;4992689;28;20453;-75
2023/03/27 01:10:53;;;;;;;0.60;0.60;;;1.20;99.90;;;;;;4996742;28;20145;-75
2023/03/27 01:13:41;;;;;;;0.50;0.50;;;1.20;99.90;;;;;;5004244;28;20045;-77
2023/03/27 01:16:18;;;;;;;0.70;0.52;;;1.20;99.90;;;;;;5012686;28;20049;-77
2023/03/27 01:18:59;;;;;;;0.77;0.55;;;1.20;99.90;;;;;;5004874;28;20058;-77
2023/03/27 01:22:00;;;;;;;2.75;0.90;;;1.20;99.90;;;;;;4995819;28;20140;-76
2023/03/27 01:25:06;;;;;;;0.40;0.40;;;1.10;99.90;;;;;;4997662;28;20085;-76
2023/03/27 01:28:05;;;;;;;0.70;0.47;;;1.20;99.90;;;;;;5003280;28;20538;-75
2023/03/27 01:30:40;;;;;;;1.40;0.52;;;1.20;99.90;;;;;;5003957;28;20054;-75
2023/03/27 01:33:42;;;;;;;1.10;0.77;;;1.20;99.90;;;;;;4983589;28;20073;-74
2023/03/27 01:36:54;;;;;;;1.17;0.60;;;1.20;99.90;;;;;;4995019;28;20104;-75
2023/03/27 01:39:50;;;;;;;1.38;0.60;;;1.10;99.90;;;;;;4982957;28;20481;-76
2023/03/27 01:42:25;;;;;;;0.75;0.40;;;1.10;99.90;;;;;;5008411;28;20442;-74
2023/03/27 01:45:02;;;;;;;1.10;0.50;;;1.10;99.90;;;;;;5012095;28;20474;-75
2023/03/27 01:47:43;;;;;;;0.82;0.60;;;1.10;99.90;;;;;;5011431;28;20060;-76
2023/03/27 01:50:20;;;;;;;0.82;0.57;;;1.00;99.90;;;;;;4999633;28;20073;-74
2023/03/27 01:52:55;;;;;;;0.60;0.60;;;1.10;99.90;;;;;;4995490;28;20054;-75
2023/03/27 01:55:30;;;;;;;0.32;0.30;;;1.00;99.90;;;;;;5011906;28;20046;-75
2023/03/27 01:58:02;;;;;;;0.85;0.60;;;1.00;99.90;;;;;;5008112;28;20050;-75
2023/03/27 02:00:32;;;;;;;;;;;1.00;99.90;;;;;;4994805;28;20412;-75
2023/03/27 02:03:15;;;;;;;1.52;0.50;;;1.00;99.90;;;;;;5020898;28;19929;-75
2023/03/27 02:05:48;;;;;;;0.35;0.35;;;1.00;99.90;;;;;;4987526;28;20154;-75
2023/03/27 02:08:21;;;;;;;0.60;0.60;;;1.00;99.90;;;;;;5005472;28;20054;-75
2023/03/27 02:10:58;;;;;;;1.25;0.52;;;1.00;99.90;;;;;;4995095;28;20054;-75
2023/03/27 02:13:37;;;;;;;0.47;0.40;;;1.00;99.90;;;;;;5009807;28;20046;-76
2023/03/27 02:16:10;;;;;;;0.90;0.50;;;1.00;99.90;;;;;;5011729;28;20111;-76
2023/03/27 02:18:46;;;;;;;;;;;1.00;99.90;;;;;;5005701;28;20049;-76
2023/03/27 02:21:15;;;;;;;0.60;0.43;;;1.00;99.90;;;;;;5016898;28;19929;-75
2023/03/27 02:23:46;;;;;;;0.57;0.50;;;1.00;99.90;;;;;;4992397;28;20046;-76
2023/03/27 02:26:15;;;;;;;1.35;0.80;;;1.00;99.90;;;;;;5008680;28;20054;-75
2023/03/27 02:29:10;;;;;;;1.00;0.55;;;1.00;99.90;;;;;;5005614;28;20046;-76
2023/03/27 02:31:52;;;;;;;0.70;0.70;;;1.00;99.90;;;;;;4976961;28;20050;-75
2023/03/27 02:34:58;;;;;;;0.43;0.43;;;1.00;99.90;;;;;;5010324;28;20495;-75
2023/03/27 02:37:36;;;;;;;0.30;0.30;;;1.00;99.90;;;;;;4974855;28;20057;-75
2023/03/27 02:40:28;;;;;;;0.60;0.43;;;1.00;99.90;;;;;;4992113;28;20061;-74
2023/03/27 02:43:13;;;;;;;0.50;0.50;;;1.00;99.90;;;;;;5019051;28;20042;-74
2023/03/27 02:45:46;;;;;;;;;;;1.00;99.90;;;;;;5000591;28;20050;-75
2023/03/27 02:48:21;;;;;;;0.45;0.40;;;1.00;99.90;;;;;;5003212;28;19925;-75
2023/03/27 02:50:55;;;;;;;0.70;0.70;;;1.00;99.90;;;;;;5008721;28;20552;-75
2023/03/27 02:53:27;;;;;;;1.17;0.60;;;0.90;99.90;;;;;;5010945;28;20084;-76
2023/03/27 02:56:00;;;;;;;1.67;1.47;;;0.90;99.90;;;;;;5006275;28;20150;-76
2023/03/27 02:58:35;;;;;;;0.50;0.50;;;0.90;99.90;;;;;;5006552;28;20070;-76
2023/03/27 03:01:15;;;;;;;0.60;0.55;;;0.90;99.90;;;;;;4987883;28;20407;-75
2023/03/27 03:04:18;;;;;;;0.82;0.35;;;0.90;99.90;;;;;;5007055;28;20054;-75
2023/03/27 03:07:05;;;;;;;1.10;0.88;;;0.80;99.90;;;;;;5003072;28;20046;-75
2023/03/27 03:09:34;;;;;;;0.50;0.50;;;0.80;99.90;;;;;;4999216;28;20503;-75
2023/03/27 03:12:01;;;;;;;0.50;0.50;;;0.80;99.90;;;;;;5002290;28;20137;-76
2023/03/27 03:14:42;;;;;;;0.65;0.50;;;0.80;99.90;;;;;;5006871;28;20507;-75
2023/03/27 03:17:10;;;;;;;0.80;0.57;;;0.90;99.90;;;;;;5015325;28;20050;-75
2023/03/27 03:19:38;;;;;;;0.55;0.55;;;0.80;99.90;;;;;;5002784;28;20568;-75
2023/03/27 03:22:06;;;;;;;2.83;1.05;;;0.90;99.90;;;;;;4992454;28;20054;-76
2023/03/27 03:24:35;;;;;;;1.10;0.95;;;0.90;99.90;;;;;;5009679;28;20104;-75
2023/03/27 03:27:04;;;;;;;0.47;0.47;;;0.90;99.90;;;;;;5005591;28;20061;-75
2023/03/27 03:29:43;;;;;;;0.50;0.50;;;0.90;99.90;;;;;;4999563;28;20142;-76
2023/03/27 03:32:19;;;;;;;0.75;0.43;;;0.90;99.90;;;;;;5013432;28;20057;-75
2023/03/27 03:34:50;;;;;;;1.10;0.55;;;0.90;99.90;;;;;;4990109;28;20092;-75
2023/03/27 03:37:18;;;;;;;1.98;0.60;;;0.90;99.90;;;;;;4982973;28;20046;-75
2023/03/27 03:39:46;;;;;;;0.65;0.30;;;0.90;99.90;;;;;;5006121;28;20048;-74
2023/03/27 03:42:16;;;;;;;0.85;0.40;;;0.90;99.90;;;;;;4997667;28;20050;-75
2023/03/27 03:44:45;;;;;;;0.55;0.45;;;0.80;99.90;;;;;;5013273;28;20074;-74
2023/03/27 03:47:18;;;;;;;0.50;0.50;;;0.80;99.90;;;;;;4985287;28;20584;-75
2023/03/27 03:49:46;;;;;;;0.57;0.57;;;0.80;99.90;;;;;;5005712;28;20061;-75
2023/03/27 03:52:14;;;;;;;0.43;0.28;;;0.80;99.90;;;;;;4990748;28;20054;-75
2023/03/27 03:54:42;;;;;;;2.10;0.75;;;0.80;99.90;;;;;;5005010;28;20089;-75
2023/03/27 03:57:09;;;;;;;2.03;0.60;;;0.70;99.90;;;;;;5005990;28;20045;-74
2023/03/27 03:59:37;;;;;;;0.40;0.40;;;0.80;99.90;;;;;;5021289;28;20374;-75
2023/03/27 04:02:30;;;;;;;1.42;0.60;;;0.80;99.90;;;;;;5008391;28;20136;-75
2023/03/27 04:05:09;;;;;;;1.80;1.10;;;0.80;99.90;;;;;;5013444;28;20058;-76
2023/03/27 04:07:38;;;;;;;0.65;0.40;;;0.80;99.90;;;;;;5017752;28;20080;-76
2023/03/27 04:10:24;;;;;;;0.98;0.50;;;0.90;99.90;;;;;;5011672;28;20061;-75
2023/03/27 04:12:52;;;;;;;3.28;0.85;;;0.90;99.90;;;;;;5007031;28;20418;-75
2023/03/27 04:15:43;;;;;;;0.75;0.70;;;0.90;99.90;;;;;;5009104;28;20141;-75
2023/03/27 04:18:13;;;;;;;0.50;0.50;;;0.90;99.90;;;;;;4995418;28;20145;-75
2023/03/27 04:20:41;;;;;;;1.40;0.60;;;0.90;99.90;;;;;;4997387;28;20082;-76
2023/03/27 04:23:12;;;;;;;1.27;0.90;;;0.90;99.90;;;;;;5003988;28;20056;-76
2023/03/27 04:25:41;;;;;;;1.30;0.93;;;0.90;99.90;;;;;;5013085;28;20100;-76
2023/03/27 04:28:15;;;;;;;1.58;0.75;;;0.90;99.90;;;;;;5005114;28;20058;-76
2023/03/27 04:30:49;;;;;;;0.75;0.57;;;0.90;99.90;;;;;;5015851;28;20057;-75
2023/03/27 04:33:45;;;;;;;1.48;0.75;;;1.00;99.90;;;;;;4999188;28;20056;-75
2023/03/27 04:36:38;;;;;;;0.63;0.63;;;1.00;99.90;;;;;;4999253;28;20189;-76
2023/03/27 04:39:11;;;;;;;0.52;0.43;;;1.00;99.90;;;;;;4994161;28;20050;-75
2023/03/27 04:41:38;;;;;;;0.60;0.60;;;1.00;99.90;;;;;;5004157;28;20057;-76
2023/03/27 04:44:07;;;;;;;1.65;0.80;;;1.00;99.90;;;;;;5003381;28;20043;-76
2023/03/27 04:46:40;;;;;;;0.88;0.65;;;1.00;99.90;;;;;;4985055;28;20050;-75
2023/03/27 04:49:13;;;;;;;7.35;0.80;;;1.00;99.90;;;;;;4993254;28;20506;-76
2023/03/27 04:52:00;;;;;;;1.27;0.68;;;1.00;99.90;;;;;;4992789;28;20518;-75
2023/03/27 04:54:30;;;;;;;2.15;0.40;;;1.10;99.90;;;;;;4978908;28;20042;-76
2023/03/27 04:57:00;;;;;;;1.95;0.70;;;1.10;99.90;;;;;;4994250;28;20054;-76
2023/03/27 04:59:30;;;;;;;2.05;0.50;;;1.00;99.90;;;;;;5026601;28;20485;-75
2023/03/27 05:02:18;;;;;;;0.77;0.70;;;1.00;99.90;;;;;;5002416;28;20057;-76
2023/03/27 05:05:13;;;;;;;0.88;0.73;;;1.00;99.90;;;;;;5009424;28;20048;-75
2023/03/27 05:07:45;;;;;;;0.50;0.50;;;1.00;99.90;;;;;;4997881;28;20431;-75
2023/03/27 05:10:17;;;;;;;0.75;0.70;;;1.00;99.90;;;;;;5000023;28;20145;-75
2023/03/27 05:12:47;;;;;;;2.63;0.70;;;1.00;99.90;;;;;;5010965;28;20058;-75
2023/03/27 05:15:17;;;;;;;0.73;0.73;;;1.10;99.90;;;;;;5025504;28;20108;-76
2023/03/27 05:17:51;;;;;;;1.10;0.45;;;1.10;99.90;;;;;;5005573;28;20050;-75
2023/03/27 05:20:22;;;;;;;0.52;0.50;;;1.10;99.90;;;;;;5002376;28;20054;-77
2023/03/27 05:22:53;;;;;;;0.43;0.40;;;1.20;99.90;;;;;;5008909;28;20086;-76
2023/03/27 05:25:32;;;;;;;1.30;0.80;;;1.20;99.90;;;;;;4999893;28;20550;-76
2023/03/27 05:28:03;;;;;;;0.52;0.50;;;1.20;99.90;;;;;;5017607;28;20042;-75
2023/03/27 05:30:34;;;;;;;4.25;0.63;;;1.30;99.90;;;;;;5015782;28;20538;-76
2023/03/27 05:33:21;;;;;;;3.83;1.27;;;1.30;99.90;;;;;;4999354;28;20053;-77
2023/03/27 05:35:52;;;;;;;1.25;0.80;;;1.40;99.90;;;;;;4999115;28;20054;-77
2023/03/27 05:38:21;;;;;;;2.70;0.45;;;1.40;99.90;;;;;;5001662;28;20085;-76
2023/03/27 05:41:09;;;;;;;0.80;0.65;;;1.40;99.90;;;;;;5012433;28;20054;-76
2023/03/27 05:43:41;;;;;;;1.98;0.70;;;1.40;99.90;;;;;;5012203;28;20610;-76
2023/03/27 05:46:09;;;;;;;1.65;0.93;;;1.40;99.90;;;;;;4994413;28;20684;-76
2023/03/27 05:48:38;;;;;;;1.10;0.57;;;1.50;99.90;;;;;;4981389;28;20084;-76
2023/03/27 05:51:08;;;;;;;0.60;0.50;;;1.50;99.90;;;;;;4984353;28;20160;-76
2023/03/27 05:53:38;;;;;;;2.15;0.60;;;1.50;99.90;;;;;;4992251;28;20058;-76
2023/03/27 05:56:34;;;;;;;0.80;0.68;;;1.50;99.90;;;;;;4996567;28;20050;-77
2023/03/27 05:59:04;;;;;;;0.93;0.82;;;1.50;99.90;;;;;;4994675;28;20149;-76
2023/03/27 06:01:34;;;;;;;0.82;0.80;;;1.60;99.90;;;;;;5017219;28;20499;-76
2023/03/27 06:04:03;;;;;;;1.80;1.38;;;1.60;99.90;;;;;;4994992;28;20438;-77
2023/03/27 06:07:01;;;;;;;0.82;0.50;;;1.60;99.90;;;;;;5007959;28;20050;-76
2023/03/27 06:09:29;;;;;;;;;;;1.60;99.90;;;;;;5014009;28;20109;-76
2023/03/27 06:12:20;;;;;;;0.75;0.75;;;1.70;99.90;;;;;;4991390;28;20024;-76
2023/03/27 06:14:50;;;;;;;2.05;0.70;;;1.80;99.90;;;;;;4998232;28;20100;-76
2023/03/27 06:17:32;;;;;;;0.75;0.75;;;1.70;99.90;;;;;;5010973;28;20419;-77
2023/03/27 06:20:09;;;;;;;1.30;0.82;;;1.80;99.90;;;;;;4981824;28;20592;-77
2023/03/27 06:22:44;;;;;;;0.50;0.38;;;1.80;99.90;;;;;;5002737;28;20149;-76
2023/03/27 06:25:13;;;;;;;0.70;0.60;;;1.90;99.90;;;;;;5010720;28;20075;-76
2023/03/27 06:27:42;;;;;;;0.68;0.47;;;1.90;99.90;;;;;;5013513;28;20180;-75
2023/03/27 06:30:12;;;;;;;1.98;0.68;;;1.90;99.90;;;;;;5005360;28;20054;-75
2023/03/27 06:32:46;;;;;;;1.92;1.25;;;1.90;99.90;;;;;;4995277;28;20050;-77
2023/03/27 06:35:17;;;;;;;0.90;0.50;;;2.00;99.90;;;;;;5005678;28;20525;-75
2023/03/27 06:37:58;;;;;;;0.73;0.38;;;2.00;99.90;;;;;;5002157;28;20050;-76
2023/03/27 06:40:30;;;;;;;0.50;0.50;;;1.90;99.90;;;;;;5001594;28;20034;-76
2023/03/27 06:43:03;;;;;;;0.60;0.55;;;1.90;99.90;;;;;;5007395;28;20046;-78
2023/03/27 06:45:56;;;;;;;0.80;0.80;;;1.90;99.90;;;;;;4995359;28;20054;-77
2023/03/27 06:48:49;;;;;;;0.68;0.68;;;2.10;99.90;;;;;;4993276;28;20062;-77
2023/03/27 06:51:21;;;;;;;4.47;1.92;;;2.10;99.90;;;;;;4997368;28;20058;-75
2023/03/27 06:53:52;;;;;;;0.80;0.70;;;2.20;99.90;;;;;;4986763;28;20046;-75
2023/03/27 06:56:26;;;;;;;0.80;0.70;;;2.20;99.90;;;;;;4993485;28;20050;-75
2023/03/27 06:59:29;;;;;;;1.58;0.50;;;2.30;99.90;;;;;;5029894;28;20125;-76
2023/03/27 07:02:03;;;;;;;0.60;0.60;;;2.20;99.90;;;;;;4989682;28;20053;-76
2023/03/27 07:05:00;;;;;;;1.02;0.80;;;2.20;99.90;;;;;;5002454;28;20065;-76
2023/03/27 07:07:35;;;;;;;0.80;0.50;;;2.30;99.90;;;;;;5004762;28;20057;-75
2023/03/27 07:10:06;;;;;;;0.75;0.73;;;2.30;99.90;;;;;;5005742;28;20050;-76
2023/03/27 07:12:33;;;;;;;1.20;0.80;;;2.40;99.90;;;;;;5002421;28;20148;-76
2023/03/27 07:15:02;;;;;;;0.50;0.50;;;2.40;99.90;;;;;;4993938;28;20491;-76
2023/03/27 07:17:31;;;;;;;0.47;0.47;;;2.50;99.90;;;;;;5007629;28;20524;-76
2023/03/27 07:20:00;;;;;;;1.02;0.85;;;2.50;99.90;;;;;;5010181;28;20061;-77
2023/03/27 07:22:29;;;;;;;1.15;1.00;;;2.60;99.90;;;;;;5003452;28;20514;-76
2023/03/27 07:24:59;;;;;;;0.68;0.65;;;2.60;99.90;;;;;;4983687;28;20458;-80
2023/03/27 07:27:41;;;;;;;0.47;0.47;;;2.60;99.90;;;;;;5015993;28;20480;-77
2023/03/27 07:30:12;;;;;;;2.95;0.73;;;2.60;99.90;;;;;;4998307;28;20073;-76
2023/03/27 07:32:45;;;;;;;1.52;0.90;;;2.50;99.90;;;;;;5009742;28;20076;-78
2023/03/27 07:35:14;;;;;;;0.60;0.60;;;2.50;99.90;;;;;;5013032;28;20061;-80
2023/03/27 07:38:16;;;;;;;1.02;0.70;;;2.50;99.90;;;;;;5001936;28;20073;-79
2023/03/27 07:41:05;;;;;;;3.83;1.25;;;2.50;99.90;;;;;;4997212;28;20131;-79
2023/03/27 07:43:35;;;;;;;1.00;0.85;;;2.50;99.90;;;;;;5000531;28;20069;-78
2023/03/27 07:46:05;;;;;;;1.23;0.95;;;2.50;99.90;;;;;;5010891;28;20568;-77
2023/03/27 07:48:34;;;;;;;1.00;0.40;;;2.50;99.90;;;;;;5006561;28;20522;-79
2023/03/27 07:51:06;;;;;;;1.92;0.70;;;2.60;99.90;;;;;;5004819;28;20046;-79
2023/03/27 07:53:34;;;;;;;1.42;0.90;;;2.60;99.90;;;;;;5006630;28;20533;-75
2023/03/27 07:56:17;;;;;;;;;;;2.70;99.90;;;;;;5017370;28;20457;-76
2023/03/27 07:58:52;;;;;;;0.70;0.70;;;2.80;99.90;;;;;;5008834;28;19925;-77
2023/03/27 08:01:24;;;;;;;1.27;0.77;;;2.90;99.90;;;;;;5002754;28;20498;-77
2023/03/27 08:03:54;;;;;;;0.50;0.50;;;2.80;99.90;;;;;;5005598;28;20046;-78
2023/03/27 08:06:22;;;;;;;1.10;1.00;;;2.90;99.90;;;;;;5008329;28;20084;-77
2023/03/27 08:08:50;;;;;;;0.85;0.85;;;2.90;99.90;;;;;;5004958;28;20092;-79
2023/03/27 08:11:19;;;;;;;1.50;0.82;;;2.90;99.90;;;;;;5010088;28;20127;-80
2023/03/27 08:13:50;;;;;;;1.75;0.73;;;3.00;99.90;;;;;;4987169;28;20119;-79
2023/03/27 08:16:20;;;;;;;2.00;0.90;;;3.00;99.90;;;;;;5002194;28;20056;-76
2023/03/27 08:18:48;;;;;;;0.85;0.63;;;3.00;99.90;;;;;;4998082;28;20061;-77
2023/03/27 08:21:17;;;;;;;0.45;0.45;;;3.00;99.90;;;;;;4993951;28;20073;-74
2023/03/27 08:23:49;;;;;;;0.90;0.80;;;3.00;99.90;;;;;;4988422;28;20140;-75
2023/03/27 08:26:52;;;;;;;1.10;0.75;;;3.00;99.90;;;;;;5005656;28;20046;-76
2023/03/27 08:29:21;;;;;;;0.50;0.50;;;2.90;99.90;;;;;;5005163;28;20100;-80
2023/03/27 08:31:49;;;;;;;1.65;1.13;;;2.90;99.90;;;;;;5006387;28;20388;-80
2023/03/27 08:34:17;;;;;;;1.10;1.00;;;2.80;99.90;;;;;;5008940;28;20049;-78
2023/03/27 08:36:47;;;;;;;1.17;0.80;;;2.70;99.90;;;;;;5007263;28;20127;-78
2023/03/27 08:39:16;;;;;;;0.65;0.60;;;2.60;99.90;;;;;;4934998;28;20054;-78
2023/03/27 08:41:55;;;;;;;2.38;0.70;;;2.60;99.90;;;;;;5003939;28;20046;-80
2023/03/27 08:44:33;;;;;;;2.25;0.80;;;2.50;99.90;;;;;;5007929;28;20049;-80
2023/03/27 08:47:11;;;;;;;1.40;0.88;;;2.50;99.90;;;;;;5006972;28;20046;-78
2023/03/27 08:49:52;;;;;;;1.20;1.10;;;2.50;99.90;;;;;;4991180;28;20047;-80
2023/03/27 08:52:27;;;;;;;1.10;0.75;;;2.60;99.90;;;;;;5008309;28;20588;-78
2023/03/27 08:55:01;;;;;;;1.60;0.80;;;2.60;99.90;;;;;;5014375;28;20441;-78
2023/03/27 08:57:37;;;;;;;0.90;0.82;;;2.50;99.90;;;;;;5018034;28;20348;-80
2023/03/27 09:00:21;;;;;;;2.40;0.80;;;2.50;99.90;;;;;;4991305;28;20049;-78
2023/03/27 09:02:57;;;;;;;3.13;0.73;;;2.60;99.90;;;;;;5000210;28;20061;-78
2023/03/27 09:05:37;;;;;;;1.33;0.90;;;2.60;99.90;;;;;;5028336;28;20046;-83
2023/03/27 09:08:15;;;;;;;1.60;1.05;;;2.60;99.90;;;;;;5008144;28;20176;-80
2023/03/27 09:10:49;;;;;;;1.40;0.90;;;2.70;99.90;;;;;;5008380;28;20049;-82
2023/03/27 09:13:47;;;;;;;0.82;0.60;;;2.80;99.90;;;;;;5017820;28;20475;-83
2023/03/27 09:16:20;;;;;;;;;;;2.90;99.90;;;;;;5008938;28;20058;-81
2023/03/27 09:18:59;;;;;;;1.25;0.80;;;3.00;99.90;;;;;;5015702;28;19925;-81
2023/03/27 09:21:40;;;;;;;1.30;0.93;;;3.00;99.90;;;;;;4994508;28;20045;-82
2023/03/27 09:24:20;;;;;;;1.13;0.70;;;3.00;99.90;;;;;;4991406;28;20065;-79
2023/03/27 09:27:19;;;;;;;1.15;0.93;;;3.00;99.90;;;;;;5012442;28;20132;-81
2023/03/27 09:30:23;;;;;;;2.78;1.15;;;3.20;99.90;;;;;;5021032;28;20049;-80
2023/03/27 09:33:11;;;;;;;1.80;0.85;;;3.40;99.90;;;;;;4992311;28;20057;-80
2023/03/27 09:35:39;;;;;;;2.05;0.93;;;3.50;99.90;;;;;;5001184;28;20534;-76
2023/03/27 09:38:33;;;;;;;0.80;0.80;;;3.50;99.90;;;;;;5008676;28;20100;-74
2023/03/27 09:41:08;;;;;;;2.20;0.98;;;3.50;99.90;;;;;;5012091;28;20053;-73
2023/03/27 09:43:43;;;;;;;1.85;0.90;;;3.50;99.90;;;;;;5001440;28;20146;-73
2023/03/27 09:46:16;;;;;;;1.67;1.13;;;3.60;99.90;;;;;;5004743;28;20049;-76
2023/03/27 09:48:59;;;;;;;1.10;0.95;;;3.50;99.90;;;;;;4998327;28;20054;-78
2023/03/27 09:51:40;;;;;;;0.90;0.90;;;3.40;99.90;;;;;;5008236;28;20053;-74
2023/03/27 09:54:16;;;;;;;3.28;1.17;;;3.30;99.90;;;;;;5009653;28;20069;-74
2023/03/27 09:56:50;;;;;;;2.28;1.00;;;3.30;99.90;;;;;;4991417;28;20054;-72
2023/03/27 09:59:26;;;;;;;1.20;0.90;;;3.30;99.90;;;;;;5007063;28;20050;-73
2023/03/27 10:02:17;;;;;;;1.48;1.10;;;3.30;99.90;;;;;;5007711;28;20597;-74
2023/03/27 10:04:59;;;;;;;3.58;1.23;;;3.50;99.90;;;;;;4992624;28;20078;-74
2023/03/27 10:07:33;;;;;;;2.80;0.80;;;3.50;99.90;;;;;;5009461;28;20074;-73
2023/03/27 10:10:18;;;;;;;2.00;0.90;;;3.50;99.90;;;;;;5007368;28;20046;-74
2023/03/27 10:13:06;;;;;;;1.77;0.93;;;3.50;99.90;;;;;;5003354;28;20046;-79
2023/03/27 10:15:41;;;;;;;1.00;0.80;;;3.40;99.90;;;;;;5007673;28;20137;-79
2023/03/27 10:18:27;;;;;;;0.82;0.80;;;3.50;99.90;;;;;;5008605;28;20049;-74
2023/03/27 10:21:12;;;;;;;2.47;0.90;;;3.40;99.90;;;;;;5002943;28;20047;-79
2023/03/27 10:23:45;;;;;;;1.15;0.85;;;3.30;99.90;;;;;;5001515;28;20061;-79
2023/03/27 10:26:28;;;;;;;1.05;0.90;;;3.20;99.90;;;;;;5019185;28;20050;-80
2023/03/27 10:29:01;;;;;;;2.42;0.65;;;3.30;99.90;;;;;;5011968;28;20050;-81
2023/03/27 10:31:38;;;;;;;2.15;0.90;;;3.30;99.90;;;;;;5001408;28;20081;-78
2023/03/27 10:34:35;;;;;;;2.80;0.80;;;3.30;99.90;;;;;;5006927;28;20475;-79
2023/03/27 10:37:29;;;;;;;1.27;1.17;;;3.10;99.90;;;;;;5003506;28;20467;-80
2023/03/27 10:40:18;;;;;;;4.28;1.00;;;3.10;99.90;;;;;;5017496;28;20046;-79
2023/03/27 10:42:50;;;;;;;5.63;1.88;;;3.20;99.90;;;;;;5009862;28;20080;-79
2023/03/27 10:45:21;;;;;;;2.67;1.00;;;3.40;99.90;;;;;;5010398;28;20472;-80
2023/03/27 10:47:57;;;;;;;2.45;0.90;;;3.50;99.90;;;;;;4989885;28;20523;-77
2023/03/27 10:50:32;;;;;;;4.25;1.23;;;3.50;99.90;;;;;;4975480;28;20042;-78
2023/03/27 10:53:15;;;;;;;1.20;0.70;;;3.60;99.90;;;;;;4998444;28;20137;-81
2023/03/27 10:56:01;;;;;;;1.13;0.85;;;3.60;99.90;;;;;;5001418;28;20056;-81
2023/03/27 10:58:35;;;;;;;1.02;0.90;;;3.60;99.90;;;;;;5005723;28;20102;-76
2023/03/27 11:01:10;;;;;;;1.00;0.90;;;3.50;99.90;;;;;;4996014;28;20054;-74
2023/03/27 11:03:51;;;;;;;2.92;1.25;;;3.40;99.90;;;;;;4996869;28;20189;-74
2023/03/27 11:06:23;;;;;;;0.90;0.88;;;3.40;99.90;;;;;;4999905;28;20542;-72
2023/03/27 11:09:04;;;;;;;1.77;0.80;;;3.30;99.90;;;;;;4995920;28;20133;-76
2023/03/27 11:11:40;;;;;;;2.03;0.93;;;3.10;99.90;;;;;;5008907;28;20088;-77
2023/03/27 11:14:19;;;;;;;1.77;1.00;;;3.10;99.90;;;;;;4988303;28;20109;-79
2023/03/27 11:16:58;;;;;;;4.15;1.33;;;3.00;99.90;;;;;;5009046;28;20112;-80
2023/03/27 11:19:48;;;;;;;1.50;1.08;;;2.90;99.90;;;;;;4998042;28;20053;-79
2023/03/27 11:22:33;;;;;;;3.17;1.10;;;2.90;99.90;;;;;;4996048;28;20564;-80
2023/03/27 11:25:21;;;;;;;4.85;1.10;;;2.80;99.90;;;;;;5001705;28;20042;-79
2023/03/27 11:28:01;;;;;;;1.00;0.80;;;2.70;99.90;;;;;;5020023;28;20045;-76
2023/03/27 11:30:43;;;;;;;1.20;1.10;;;2.80;99.90;;;;;;5022227;28;20057;-76
2023/03/27 11:33:32;;;;;;;2.72;1.13;;;2.70;99.90;;;;;;5009384;28;20576;-75
2023/03/27 11:36:21;;;;;;;1.35;0.90;;;2.70;99.90;;;;;;5004013;28;20084;-76
2023/03/27 11:39:14;;;;;;;1.48;1.10;;;2.70;99.90;;;;;;5018466;28;20057;-75
2023/03/27 11:41:54;;;;;;;3.85;1.77;;;2.80;99.90;;;;;;5004046;28;20046;-78
2023/03/27 11:44:25;;;;;;;13.23;2.33;;;2.70;99.90;;;;;;5025316;28;20104;-78
2023/03/27 11:47:47;;;;;;;1.95;1.50;;;2.70;99.90;;;;;;4986035;28;20585;-79
2023/03/27 11:50:43;;;;;;;5.50;1.77;;;2.80;99.90;;;;;;5007183;28;20151;-76
2023/03/27 11:53:47;;;;;;;1.98;1.38;;;2.90;99.90;;;;;;5003765;28;20111;-75
2023/03/27 11:56:42;;;;;;;2.38;1.05;;;3.10;99.90;;;;;;4991169;28;20581;-76
2023/03/27 12:00:15;;;;;;;3.65;0.85;;;3.20;99.90;;;;;;5004470;28;20046;-79
2023/03/27 12:03:35;;;;;;;1.88;1.02;;;3.30;99.90;;;;;;5008582;28;20045;-80
2023/03/27 12:06:14;;;;;;;1.17;0.90;;;3.30;99.90;;;;;;4999766;28;20088;-81
2023/03/27 12:09:22;;;;;;;1.55;0.80;;;3.20;99.90;;;;;;5003948;28;20594;-76
2023/03/27 12:12:50;;;;;;;2.35;1.40;;;3.20;99.90;;;;;;4986131;28;20137;-78
2023/03/27 12:15:50;;;;;;;2.55;1.15;;;3.10;99.90;;;;;;4998058;28;20053;-82
2023/03/27 12:19:07;;;;;;;1.77;1.42;;;3.00;99.90;;;;;;5009910;28;20065;-78
2023/03/27 12:22:25;;;;;;;1.77;1.10;;;2.90;99.90;;;;;;4989854;28;20046;-80
2023/03/27 12:25:46;;;;;;;0.88;0.82;;;2.80;99.90;;;;;;5009228;28;20053;-79
2023/03/27 12:29:04;;;;;;;4.85;1.00;;;2.70;99.90;;;;;;4992170;28;20057;-81
2023/03/27 12:32:09;;;;;;;5.55;1.00;;;2.70;99.90;;;;;;4990318;28;20058;-82
2023/03/27 12:34:59;;;;;;;3.42;0.90;;;2.70;99.90;;;;;;5007892;28;20557;-83
2023/03/27 12:37:51;;;;;;;2.72;1.23;;;2.70;99.90;;;;;;5006135;28;20046;-79
2023/03/27 12:40:52;;;;;;;4.90;1.08;;;2.60;99.90;;;;;;4980550;28;20050;-79
2023/03/27 12:43:38;;;;;;;1.92;0.98;;;2.60;99.90;;;;;;5011019;28;20139;-81
2023/03/27 12:46:37;;;;;;;1.48;1.02;;;2.50;99.90;;;;;;4993186;28;20154;-82
2023/03/27 12:49:56;;;;;;;3.88;0.90;;;2.50;99.90;;;;;;5008720;28;20116;-77
2023/03/27 12:52:30;;;;;;;2.65;0.80;;;2.50;99.90;;;;;;4995689;28;20050;-79
2023/03/27 12:55:36;;;;;;;2.05;1.10;;;2.40;99.90;;;;;;5004534;28;20589;-79
2023/03/27 12:58:35;;;;;;;1.63;1.10;;;2.40;99.90;;;;;;5012528;28;20193;-80
2023/03/27 13:01:48;;;;;;;1.58;1.00;;;2.30;99.90;;;;;;5007465;28;20046;-81
2023/03/27 13:05:19;;;;;;;3.83;0.95;;;2.30;99.90;;;;;;4983158;28;20077;-81
2023/03/27 13:07:58;;;;;;;1.23;1.13;;;2.30;99.90;;;;;;4993187;28;20103;-82
2023/03/27 13:11:00;;;;;;;4.97;2.03;;;2.20;99.90;;;;;;4993361;28;20054;-79
2023/03/27 13:14:17;;;;;;;3.03;1.45;;;2.10;99.90;;;;;;5009940;28;20441;-80
2023/03/27 13:17:05;;;;;;;2.97;1.10;;;2.10;99.90;;;;;;5011566;28;20046;-78
2023/03/27 13:19:50;;;;;;;2.00;1.20;;;2.10;99.90;;;;;;4991989;28;20041;-80
2023/03/27 13:22:44;;;;;;;2.15;1.08;;;2.00;99.90;;;;;;4988962;28;20045;-81
2023/03/27 13:25:44;;;;;;;1.05;0.75;;;1.90;99.90;;;;;;5010238;28;20049;-78
2023/03/27 13:28:30;;;;;;;2.63;1.00;;;1.80;99.90;;;;;;5007613;28;20058;-80
2023/03/27 13:32:04;;;;;;;1.20;0.90;;;1.80;99.90;;;;;;4989216;28;20077;-79
2023/03/27 13:35:08;;;;;;;3.65;1.38;;;1.80;99.90;;;;;;5009245;28;20176;-81
2023/03/27 13:38:03;;;;;;;0.70;0.65;;;1.80;99.90;;;;;;5007936;28;20146;-80
2023/03/27 13:40:57;;;;;;;1.52;1.42;;;1.90;99.90;;;;;;5001471;28;20053;-81
2023/03/27 13:43:43;;;;;;;4.20;1.30;;;1.90;99.90;;;;;;5006318;28;20058;-80
2023/03/27 13:46:38;;;;;;;3.17;1.45;;;1.90;99.90;;;;;;5011634;28;20518;-80
2023/03/27 13:49:44;;;;;;;2.50;1.05;;;2.00;99.90;;;;;;5011779;28;20143;-80
2023/03/27 13:52:58;;;;;;;2.53;1.10;;;2.00;99.90;;;;;;4988680;28;20548;-80
2023/03/27 13:56:12;;;;;;;3.10;1.20;;;2.00;99.90;;;;;;5003331;28;20097;-78
2023/03/27 13:59:49;;;;;;;1.65;1.20;;;1.90;99.90;;;;;;5017407;28;20045;-79
2023/03/27 14:03:13;;;;;;;2.05;1.15;;;1.80;99.90;;;;;;5013855;28;20414;-83
2023/03/27 14:07:02;;;;;;;1.52;0.98;;;1.80;99.90;;;;;;4984383;28;20507;-80
2023/03/27 14:09:56;;;;;;;4.60;1.98;;;1.90;99.90;;;;;;4988844;28;20152;-80